Time;durP1;ratioP1;P1;durP2;ratioP2;P2;SDS_P1;SDS_P2;PMS_P1;PMS_P2;Temp;Humidity;BMP_temperature;BMP_pressure;BME280_temperature;BME280_humidity;BME280_pressure;Samples;Min_cycle;Max_cycle;Signal;HPM_P1;HPM_P2
2021/12/16 00:04:11;;;;;;;71.63;47.45;;;;;;;7.71;100.00;103375.25;5012797;28;20180;-61
2021/12/16 00:08:59;;;;;;;64.88;46.55;;;;;;;7.71;100.00;103383.00;5012276;28;20117;-61
2021/12/16 00:30:08;;;;;;;63.75;46.38;;;;;;;7.65;100.00;103380.78;5011600;28;20032;-61
2021/12/16 00:32:45;;;;;;;67.18;48.15;;;;;;;7.65;100.00;103373.06;5011943;28;20045;-62
2021/12/16 00:35:11;;;;;;;66.63;47.20;;;;;;;7.65;100.00;103386.88;5011590;28;20394;-61
2021/12/16 00:37:37;;;;;;;64.93;47.75;;;;;;;7.65;100.00;103376.56;5012089;28;20065;-62
2021/12/16 00:40:06;;;;;;;63.53;46.45;;;;;;;7.64;100.00;103381.59;5011439;28;20104;-61
2021/12/16 00:45:09;;;;;;;67.65;47.58;;;;;;;7.63;100.00;103388.41;5011503;28;20532;-62
2021/12/16 00:55:51;;;;;;;62.97;47.78;;;;;;;7.63;100.00;103382.34;4970148;28;20085;-61
2021/12/16 00:58:22;;;;;;;64.82;47.03;;;;;;;7.61;100.00;103384.78;4969915;28;20035;-61
2021/12/16 01:01:02;;;;;;;64.05;46.83;;;;;;;7.62;100.00;103390.88;4969844;28;20041;-61
2021/12/16 01:06:14;;;;;;;66.20;49.15;;;;;;;7.61;100.00;103384.78;4969596;28;20496;-61
2021/12/16 01:52:40;;;;;;;63.08;46.00;;;;;;;7.60;100.00;103411.38;5007817;28;20099;-62
2021/12/16 01:55:20;;;;;;;60.77;45.80;;;;;;;7.61;100.00;103418.34;5007738;28;20044;-62
2021/12/16 01:57:51;;;;;;;65.65;46.83;;;;;;;7.59;100.00;103413.84;5007701;28;20033;-62
2021/12/16 02:00:27;;;;;;;65.38;47.00;;;;;;;7.58;100.00;103410.34;5020237;28;20029;-62
2021/12/16 02:03:00;;;;;;;63.45;45.28;;;;;;;7.60;100.00;103424.28;5027109;28;20418;-61
2021/12/16 02:08:18;;;;;;;63.15;45.88;;;;;;;7.58;100.00;103425.84;5027086;28;20118;-61
2021/12/16 02:10:54;;;;;;;59.58;44.80;;;;;;;7.59;100.00;103416.44;5027262;28;20053;-60
2021/12/16 02:32:31;;;;;;;62.83;45.65;;;;;;;7.56;100.00;103428.28;5009328;28;20106;-61
2021/12/16 02:37:31;;;;;;;58.13;43.55;;;;;;;7.55;100.00;103433.31;4993822;28;20191;-61
2021/12/16 02:39:57;;;;;;;59.60;44.97;;;;;;;7.54;100.00;103428.91;4989838;28;20053;-61
2021/12/16 02:42:35;;;;;;;60.72;45.80;;;;;;;7.54;100.00;103428.91;4990032;28;20027;-61
2021/12/16 02:50:21;;;;;;;66.07;45.70;;;;;;;7.53;100.00;103452.91;5010481;28;20044;-61
2021/12/16 02:52:47;;;;;;;64.47;47.10;;;;;;;7.53;100.00;103443.50;5013523;28;20109;-61
2021/12/16 02:55:15;;;;;;;60.65;44.70;;;;;;;7.54;100.00;103436.66;5013748;28;20038;-59
2021/12/16 02:57:49;;;;;;;65.57;46.33;;;;;;;7.53;100.00;103440.03;5013838;28;20076;-62
2021/12/16 03:00:16;;;;;;;69.32;47.08;;;;;;;7.53;100.00;103447.75;5013612;28;20509;-61
2021/12/16 03:02:46;;;;;;;63.05;45.08;;;;;;;7.52;100.00;103441.69;5013273;28;20330;-63
2021/12/16 03:05:13;;;;;;;65.80;46.55;;;;;;;7.52;100.00;103445.97;5013547;28;20022;-62
2021/12/16 03:07:38;;;;;;;64.57;46.88;;;;;;;7.51;100.00;103438.97;5013786;28;20026;-62
2021/12/16 03:15:24;;;;;;;65.40;46.47;;;;;;;7.51;100.00;103433.81;5013596;28;20390;-62
2021/12/16 03:18:12;;;;;;;60.42;45.53;;;;;;;7.50;100.00;103432.91;5013448;28;20029;-62
2021/12/16 03:20:44;;;;;;;62.88;45.85;;;;;;;7.52;100.00;103440.81;5013756;28;20220;-63
2021/12/16 03:33:22;;;;;;;59.72;43.83;;;;;;;7.50;100.00;103444.94;5012737;28;20033;-61
2021/12/16 03:36:06;;;;;;;65.70;45.10;;;;;;;7.49;100.00;103435.34;5012833;28;20025;-61
2021/12/16 03:38:37;;;;;;;58.35;45.00;;;;;;;7.50;100.00;103437.19;5012838;28;20104;-61
2021/12/16 03:41:05;;;;;;;63.55;44.17;;;;;;;7.50;100.00;103437.19;5012896;28;20053;-61
2021/12/16 03:43:33;;;;;;;63.80;45.38;;;;;;;7.50;100.00;103434.59;5007346;28;20070;-61
2021/12/16 03:48:47;;;;;;;63.67;45.80;;;;;;;7.48;100.00;103449.97;5012914;28;20545;-61
2021/12/16 03:51:21;;;;;;;56.10;43.42;;;;;;;7.47;100.00;103447.22;5012719;28;20061;-61
2021/12/16 03:53:49;;;;;;;55.70;43.38;;;;;;;7.47;100.00;103442.06;5012212;28;20100;-60
2021/12/16 03:56:17;;;;;;;60.72;44.40;;;;;;;7.45;100.00;103449.66;5012786;28;20030;-62
2021/12/16 03:58:42;;;;;;;62.42;45.10;;;;;;;7.45;100.00;103460.91;5012457;28;20037;-63
2021/12/16 04:01:13;;;;;;;55.40;42.75;;;;;;;7.45;100.00;103465.16;5012236;28;20025;-62
2021/12/16 04:03:39;;;;;;;;;;;;;;;7.43;100.00;103462.44;5013180;28;20026;-62
2021/12/16 04:06:05;;;;;;;56.67;43.53;;;;;;;7.44;100.00;103453.94;5012745;28;19913;-61
2021/12/16 04:08:30;;;;;;;56.08;44.47;;;;;;;7.44;100.00;103460.78;5012371;28;20028;-62
2021/12/16 04:11:06;;;;;;;59.50;42.95;;;;;;;7.44;100.00;103458.19;5012407;28;20033;-61
2021/12/16 04:13:46;;;;;;;58.85;43.67;;;;;;;7.43;100.00;103461.53;5012124;28;20026;-61
2021/12/16 04:16:11;;;;;;;55.45;41.90;;;;;;;7.43;100.00;103462.44;5012149;28;20026;-62
2021/12/16 04:18:37;;;;;;;57.00;43.45;;;;;;;7.42;100.00;103460.66;5012369;28;20100;-61
2021/12/16 04:21:02;;;;;;;56.00;42.15;;;;;;;7.42;100.00;103467.47;5012036;28;20112;-60
2021/12/16 04:23:28;;;;;;;59.22;44.20;;;;;;;7.41;100.00;103469.13;5010802;28;20030;-62
2021/12/16 04:25:53;;;;;;;61.28;44.83;;;;;;;7.40;100.00;103464.75;5012397;28;20437;-62
2021/12/16 04:28:23;;;;;;;57.08;43.60;;;;;;;7.40;100.00;103461.25;5011968;28;20528;-61
2021/12/16 04:30:48;;;;;;;56.15;44.00;;;;;;;7.38;100.00;103463.72;5012041;28;20032;-62
2021/12/16 04:33:14;;;;;;;60.70;44.05;;;;;;;7.35;100.00;103457.38;5011764;28;20018;-62
2021/12/16 04:35:40;;;;;;;55.80;41.65;;;;;;;7.33;100.00;103454.69;5011939;28;20026;-62
2021/12/16 04:38:07;;;;;;;54.40;40.28;;;;;;;7.30;100.00;103449.25;5011697;28;20429;-59
2021/12/16 04:40:35;;;;;;;54.38;42.42;;;;;;;7.29;100.00;103455.16;5011493;28;20046;-62
2021/12/16 04:43:02;;;;;;;59.05;44.15;;;;;;;7.27;100.00;103451.53;5011814;28;20089;-61
2021/12/16 04:45:30;;;;;;;64.53;45.53;;;;;;;7.26;100.00;103453.25;5011732;28;20490;-62
2021/12/16 04:47:55;;;;;;;55.90;44.33;;;;;;;7.27;100.00;103459.28;5011569;28;20025;-62
2021/12/16 04:50:23;;;;;;;56.33;43.28;;;;;;;7.26;100.00;103457.47;5011659;28;20022;-62
2021/12/16 04:52:48;;;;;;;63.38;45.35;;;;;;;7.25;100.00;103454.00;5011227;28;20538;-62
2021/12/16 04:55:15;;;;;;;58.63;43.60;;;;;;;7.23;100.00;103449.47;5011227;28;20104;-62
2021/12/16 04:57:41;;;;;;;55.25;43.80;;;;;;;7.21;100.00;103450.22;5011299;28;20108;-61
2021/12/16 05:00:12;;;;;;;64.38;45.63;;;;;;;7.20;100.00;103456.19;5011366;28;20140;-62
2021/12/16 05:05:59;;;;;;;48.63;37.20;;;;;;;7.05;100.00;103463.44;5011606;28;20044;-61
2021/12/16 05:08:26;;;;;;;50.90;38.75;;;;;;;7.00;100.00;103458.69;5011518;28;20030;-61
2021/12/16 05:10:54;;;;;;;52.60;40.25;;;;;;;6.94;100.00;103465.06;5011388;28;20026;-62
2021/12/16 05:13:23;;;;;;;53.15;40.67;;;;;;;6.88;100.00;103459.38;5010611;28;20130;-61
2021/12/16 05:15:49;;;;;;;52.08;39.13;;;;;;;6.88;100.00;103461.06;5011392;28;20371;-61
2021/12/16 05:18:22;;;;;;;50.00;37.08;;;;;;;6.80;100.00;103463.84;5011047;28;20034;-61
2021/12/16 05:20:48;;;;;;;51.63;39.30;;;;;;;6.76;100.00;103463.44;5011098;28;20101;-61
2021/12/16 05:28:27;;;;;;;48.05;37.45;;;;;;;6.55;100.00;103468.47;4991503;28;20034;-62
2021/12/16 05:30:54;;;;;;;49.58;37.80;;;;;;;6.51;100.00;103468.97;4991530;28;20438;-62
2021/12/16 05:33:21;;;;;;;49.92;38.28;;;;;;;6.43;100.00;103471.75;4991137;28;20062;-61
2021/12/16 05:35:47;;;;;;;48.38;37.92;;;;;;;6.40;100.00;103465.41;4991294;28;20057;-61
2021/12/16 05:38:13;;;;;;;48.38;36.83;;;;;;;6.36;100.00;103472.84;4997019;28;20030;-62
2021/12/16 05:40:39;;;;;;;45.85;36.35;;;;;;;6.30;100.00;103481.66;5010599;28;20056;-62
2021/12/16 05:43:10;;;;;;;45.92;36.13;;;;;;;6.22;100.00;103489.59;5010704;28;20105;-62
2021/12/16 05:45:37;;;;;;;46.80;37.05;;;;;;;6.20;100.00;103487.66;5010555;28;20694;-61
2021/12/16 05:48:06;;;;;;;45.80;34.88;;;;;;;6.16;100.00;103488.13;5010721;28;20064;-61
2021/12/16 05:50:35;;;;;;;42.50;33.38;;;;;;;6.08;100.00;103496.03;5010500;28;20430;-62
2021/12/16 05:53:01;;;;;;;46.63;35.72;;;;;;;6.04;100.00;103498.16;5009899;28;20042;-62
2021/12/16 05:55:28;;;;;;;48.70;37.72;;;;;;;6.01;100.00;103499.69;5010331;28;20061;-60
2021/12/16 05:57:55;;;;;;;42.97;34.53;;;;;;;5.95;100.00;103499.13;5010332;28;20029;-61
2021/12/16 06:00:25;;;;;;;50.40;36.03;;;;;;;5.91;100.00;103501.25;4991716;28;20080;-62
2021/12/16 06:02:50;;;;;;;42.00;33.50;;;;;;;5.87;100.00;103507.78;4990687;28;20038;-61
2021/12/16 06:05:17;;;;;;;41.65;33.40;;;;;;;5.83;100.00;103514.28;4990909;28;20022;-62
2021/12/16 06:07:43;;;;;;;42.85;33.97;;;;;;;5.78;100.00;103518.09;5004888;28;20060;-62
2021/12/16 06:10:23;;;;;;;49.72;35.25;;;;;;;5.76;100.00;103517.03;5010198;28;20026;-62
2021/12/16 06:12:49;;;;;;;43.35;34.08;;;;;;;5.69;100.00;103520.72;5010299;28;20057;-62
2021/12/16 06:28:25;;;;;;;43.92;34.55;;;;;;;5.47;100.00;103533.19;5010228;28;20043;-62
2021/12/16 06:30:52;;;;;;;44.55;33.20;;;;;;;5.43;100.00;103523.38;5009686;28;20109;-61
2021/12/16 06:33:22;;;;;;;48.13;37.15;;;;;;;5.40;100.00;103531.69;5009283;28;20198;-61
2021/12/16 06:35:49;;;;;;;43.38;33.17;;;;;;;5.35;100.00;103538.97;5009548;28;20033;-61
2021/12/16 06:38:14;;;;;;;48.20;35.92;;;;;;;5.34;100.00;103536.25;5009511;28;20022;-62
2021/12/16 06:40:40;;;;;;;44.55;36.60;;;;;;;5.31;100.00;103535.97;5009558;28;20054;-60
2021/12/16 06:43:07;;;;;;;43.80;36.17;;;;;;;5.27;100.00;103535.63;5009605;28;20386;-61
2021/12/16 06:45:37;;;;;;;47.13;35.58;;;;;;;5.24;100.00;103540.50;5009654;28;20113;-60
2021/12/16 06:48:16;;;;;;;46.08;35.03;;;;;;;5.21;100.00;103535.06;5009842;28;20022;-60
2021/12/16 06:53:11;;;;;;;50.53;36.40;;;;;;;5.13;100.00;103535.94;5009704;28;20034;-61
2021/12/16 06:55:47;;;;;;;49.83;38.97;;;;;;;5.12;100.00;103536.72;5009497;28;20038;-61
2021/12/16 07:01:30;;;;;;;44.95;33.67;;;;;;;5.07;100.00;103550.78;5006835;28;20034;-61
2021/12/16 07:03:56;;;;;;;49.25;36.47;;;;;;;5.03;100.00;103550.50;5006704;28;20034;-62
2021/12/16 07:06:28;;;;;;;41.35;34.70;;;;;;;4.97;100.00;103549.88;5006433;28;20048;-61
2021/12/16 07:08:57;;;;;;;43.90;33.17;;;;;;;4.92;100.00;103552.00;5006379;28;20057;-61
2021/12/16 07:11:24;;;;;;;44.55;33.40;;;;;;;4.89;100.00;103558.50;5006125;28;20104;-62
2021/12/16 07:13:57;;;;;;;51.33;37.58;;;;;;;4.86;100.00;103566.81;5006228;28;20497;-62
2021/12/16 07:16:26;;;;;;;50.25;37.00;;;;;;;4.86;100.00;103568.44;5006649;28;20038;-61
2021/12/16 07:18:52;;;;;;;46.25;34.13;;;;;;;4.82;100.00;103569.84;5005358;28;20128;-64
2021/12/16 07:21:17;;;;;;;48.95;36.13;;;;;;;4.78;100.00;103580.56;5000233;28;20046;-61
2021/12/16 07:23:43;;;;;;;43.30;33.63;;;;;;;4.75;100.00;103578.56;5004028;28;20038;-62
2021/12/16 07:26:08;;;;;;;47.70;34.92;;;;;;;4.74;100.00;103591.28;4998426;28;20030;-61
2021/12/16 07:28:34;;;;;;;43.53;33.95;;;;;;;4.71;100.00;103591.91;5003223;28;20481;-61
2021/12/16 07:31:00;;;;;;;41.20;33.67;;;;;;;4.66;100.00;103583.69;4985809;28;20125;-61
2021/12/16 07:33:26;;;;;;;40.53;33.28;;;;;;;4.64;100.00;103594.59;4996011;28;20479;-61
2021/12/16 07:35:52;;;;;;;43.85;33.42;;;;;;;4.62;100.00;103606.38;5001152;28;20096;-61
2021/12/16 07:38:18;;;;;;;44.50;33.78;;;;;;;4.57;100.00;103603.31;5010049;28;20042;-61
2021/12/16 07:40:46;;;;;;;46.08;36.75;;;;;;;4.54;100.00;103609.06;5010278;28;20057;-61
2021/12/16 07:43:23;;;;;;;46.13;35.85;;;;;;;4.53;100.00;103612.38;5010725;28;20497;-60
2021/12/16 07:45:51;;;;;;;47.08;35.20;;;;;;;4.51;100.00;103613.91;5012222;28;20407;-60
2021/12/16 07:48:18;;;;;;;43.05;34.25;;;;;;;4.52;100.00;103620.84;5011034;28;20029;-61
2021/12/16 07:50:46;;;;;;;40.10;32.63;;;;;;;4.49;100.00;103624.75;5010835;28;20135;-60
2021/12/16 07:53:11;;;;;;;44.53;34.75;;;;;;;4.47;100.00;103632.31;5009674;28;20041;-60
2021/12/16 07:55:39;;;;;;;43.58;32.35;;;;;;;4.45;100.00;103638.94;5010307;28;20422;-61
2021/12/16 07:58:04;;;;;;;43.67;33.42;;;;;;;4.40;100.00;103640.13;5010692;28;20073;-60
2021/12/16 08:00:33;;;;;;;38.35;31.25;;;;;;;4.38;100.00;103655.41;5011643;28;20058;-62
2021/12/16 08:03:00;;;;;;;40.25;33.00;;;;;;;4.38;100.00;103655.41;5010391;28;20502;-61
2021/12/16 08:05:29;;;;;;;44.40;34.73;;;;;;;4.38;100.00;103657.03;5011914;28;20047;-62
2021/12/16 08:07:54;;;;;;;44.43;32.60;;;;;;;4.39;100.00;103662.34;5011598;28;20110;-61
2021/12/16 08:10:23;;;;;;;38.50;31.40;;;;;;;4.40;100.00;103660.69;5009994;28;20049;-61
2021/12/16 08:12:50;;;;;;;40.73;33.37;;;;;;;4.39;100.00;103654.63;5009847;28;20039;-60
2021/12/16 08:15:16;;;;;;;43.80;33.97;;;;;;;4.40;100.00;103660.69;5009527;28;20159;-60
2021/12/16 08:17:43;;;;;;;49.23;35.77;;;;;;;4.42;100.00;103674.59;5011096;28;20022;-60
2021/12/16 08:20:11;;;;;;;43.27;34.17;;;;;;;4.42;100.00;103679.72;5009325;28;20034;-61
2021/12/16 08:22:37;;;;;;;48.47;35.57;;;;;;;4.41;100.00;103678.81;5011642;28;20065;-62
2021/12/16 08:25:04;;;;;;;43.60;31.67;;;;;;;4.41;100.00;103672.75;5010784;28;20037;-59
2021/12/16 08:27:30;;;;;;;44.90;35.13;;;;;;;4.41;100.00;103677.91;5011500;28;20037;-61
2021/12/16 08:29:55;;;;;;;43.70;33.38;;;;;;;4.41;100.00;103688.16;5010654;28;20018;-61
2021/12/16 08:32:21;;;;;;;46.70;33.57;;;;;;;4.42;100.00;103685.78;5010288;28;20112;-62
2021/12/16 08:34:46;;;;;;;42.13;33.83;;;;;;;4.43;100.00;103684.09;5010746;28;20093;-61
2021/12/16 08:37:14;;;;;;;41.30;33.17;;;;;;;4.46;100.00;103687.00;5011690;28;20051;-60
2021/12/16 08:39:41;;;;;;;40.43;32.67;;;;;;;4.49;100.00;103687.31;5009432;28;20036;-60
2021/12/16 08:42:09;;;;;;;45.43;34.90;;;;;;;4.57;100.00;103685.50;5011089;28;20029;-60
2021/12/16 08:44:35;;;;;;;42.63;34.42;;;;;;;4.67;100.00;103687.38;5010404;28;20039;-60
2021/12/16 08:47:09;;;;;;;38.20;31.63;;;;;;;4.71;100.00;103697.22;5011041;28;20494;-61
2021/12/16 08:49:35;;;;;;;43.75;35.00;;;;;;;4.82;100.00;103700.91;5010258;28;20367;-62
2021/12/16 08:52:05;;;;;;;38.20;30.75;;;;;;;4.90;100.00;103697.44;5010698;28;20018;-59
2021/12/16 08:54:31;;;;;;;38.60;31.85;;;;;;;4.97;100.00;103704.09;5006837;28;20053;-61
2021/12/16 08:56:58;;;;;;;43.22;31.92;;;;;;;4.99;100.00;103711.94;5007364;28;20061;-61
2021/12/16 08:59:24;;;;;;;36.97;30.50;;;;;;;4.99;100.00;103707.72;5005619;28;20068;-61
2021/12/16 09:01:52;;;;;;;36.60;29.33;;;;;;;5.00;100.00;103714.69;5011411;28;20030;-62
2021/12/16 09:04:19;;;;;;;39.88;30.88;;;;;;;4.99;100.00;103720.59;5010324;28;20052;-60
2021/12/16 09:06:46;;;;;;;39.95;31.15;;;;;;;5.00;100.00;103724.06;5010096;28;20041;-60
2021/12/16 09:09:13;;;;;;;36.65;29.92;;;;;;;5.00;100.00;103722.38;5010148;28;20113;-60
2021/12/16 09:11:44;;;;;;;36.78;30.42;;;;;;;5.02;100.00;103725.09;5010023;28;20124;-62
2021/12/16 09:14:10;;;;;;;38.23;32.10;;;;;;;5.04;100.00;103723.59;5010169;28;20064;-62
2021/12/16 09:16:35;;;;;;;40.28;32.30;;;;;;;5.08;100.00;103722.25;5006339;28;20068;-61
2021/12/16 09:19:05;;;;;;;42.42;33.35;;;;;;;5.14;100.00;103726.38;5003390;28;20466;-60
2021/12/16 09:21:35;;;;;;;42.22;34.08;;;;;;;5.21;100.00;103730.47;5010938;28;20033;-61
2021/12/16 09:24:01;;;;;;;41.13;33.47;;;;;;;5.25;100.00;103732.56;5010314;28;20030;-60
2021/12/16 09:26:27;;;;;;;48.65;37.90;;;;;;;5.32;100.00;103734.13;5010466;28;20030;-61
2021/12/16 09:28:54;;;;;;;47.60;38.42;;;;;;;5.40;100.00;103733.22;5009925;28;20088;-60
2021/12/16 09:31:24;;;;;;;48.78;39.10;;;;;;;5.44;100.00;103721.56;5010710;28;20454;-61
2021/12/16 09:33:52;;;;;;;50.15;40.55;;;;;;;5.50;100.00;103727.34;5010727;28;20030;-62
2021/12/16 09:36:21;;;;;;;54.23;42.63;;;;;;;5.59;100.00;103726.41;5010720;28;20528;-60
2021/12/16 09:38:48;;;;;;;56.72;43.47;;;;;;;5.65;100.00;103734.72;5009126;28;20030;-61
2021/12/16 09:41:13;;;;;;;49.25;40.55;;;;;;;5.70;100.00;103730.94;5009355;28;20058;-61
2021/12/16 09:43:43;;;;;;;59.60;45.28;;;;;;;5.80;100.00;103739.56;5009138;28;20455;-61
2021/12/16 09:46:12;;;;;;;57.75;45.92;;;;;;;5.87;100.00;103732.63;5009137;28;20393;-62
2021/12/16 09:48:39;;;;;;;60.90;47.22;;;;;;;5.94;100.00;103741.84;5010133;28;20478;-62
2021/12/16 09:51:07;;;;;;;66.35;48.78;;;;;;;6.01;100.00;103739.09;5009776;28;20241;-59
2021/12/16 09:53:35;;;;;;;66.57;48.30;;;;;;;6.08;100.00;103727.75;5010538;28;20026;-63
2021/12/16 09:56:02;;;;;;;61.78;47.78;;;;;;;6.19;100.00;103725.34;5009344;28;20026;-63
2021/12/16 09:58:32;;;;;;;64.07;49.42;;;;;;;6.27;100.00;103734.69;5009656;28;20047;-63
2021/12/16 10:00:58;;;;;;;74.82;55.38;;;;;;;6.46;100.00;103736.44;5008604;28;20030;-61
2021/12/16 10:03:25;;;;;;;72.90;51.83;;;;;;;6.59;100.00;103724.00;5009936;28;20033;-60
2021/12/16 10:05:50;;;;;;;71.68;51.35;;;;;;;6.68;100.00;103721.38;5008199;28;20052;-60
2021/12/16 10:08:16;;;;;;;70.95;50.70;;;;;;;6.80;100.00;103738.78;5008516;28;20030;-60
2021/12/16 10:10:41;;;;;;;64.75;48.45;;;;;;;6.91;100.00;103729.44;5010004;28;20158;-61
2021/12/16 10:13:07;;;;;;;64.32;48.00;;;;;;;7.03;100.00;103727.13;5009596;28;20101;-59
2021/12/16 10:18:10;;;;;;;61.83;46.28;;;;;;;7.26;100.00;103730.91;5008315;28;20033;-61
2021/12/16 10:20:39;;;;;;;53.90;42.28;;;;;;;7.35;100.00;103728.25;5009084;28;20030;-61
2021/12/16 10:23:11;;;;;;;49.70;43.15;;;;;;;7.43;100.00;103728.19;5007729;28;20410;-61
2021/12/16 10:25:58;;;;;;;53.47;42.38;;;;;;;7.51;100.00;103726.31;5009380;28;20030;-61
2021/12/16 10:28:32;;;;;;;48.63;40.70;;;;;;;7.59;100.00;103727.00;5008694;28;20045;-62
2021/12/16 10:31:02;;;;;;;45.53;39.10;;;;;;;7.64;100.00;103722.28;5010155;28;20056;-62
2021/12/16 10:33:36;;;;;;;51.83;41.40;;;;;;;7.72;100.00;103723.88;5009214;28;20029;-58
2021/12/16 10:36:10;;;;;;;46.70;39.50;;;;;;;7.84;100.00;103725.75;5001492;28;20030;-62
2021/12/16 10:38:46;;;;;;;48.58;39.90;;;;;;;7.95;100.00;103726.72;5006361;28;20080;-60
2021/12/16 10:41:17;;;;;;;45.58;37.67;;;;;;;8.07;100.00;103732.06;5005628;28;20506;-61
2021/12/16 10:43:53;;;;;;;42.95;35.20;;;;;;;8.11;100.00;103729.88;5005079;28;20061;-61
2021/12/16 10:46:29;;;;;;;41.75;33.08;;;;;;;8.14;100.00;103729.25;5006723;28;20125;-61
2021/12/16 10:49:03;;;;;;;40.97;33.45;;;;;;;8.16;100.00;103733.78;5005985;28;20061;-61
2021/12/16 10:51:33;;;;;;;40.60;32.95;;;;;;;8.25;100.00;103732.78;5007101;28;20509;-60
2021/12/16 10:54:07;;;;;;;40.20;31.92;;;;;;;8.27;100.00;103720.91;5006112;28;20065;-62
2021/12/16 10:56:42;;;;;;;40.90;31.23;;;;;;;8.31;100.00;103722.97;5005227;28;20034;-62
2021/12/16 10:59:10;;;;;;;36.50;29.25;;;;;;;8.35;100.00;103729.31;5002747;28;20359;-62
2021/12/16 11:01:38;;;;;;;37.65;28.08;;;;;;;8.36;100.00;103724.31;5008328;28;20525;-60
2021/12/16 11:04:08;;;;;;;33.33;29.25;;;;;;;8.39;100.00;103734.91;5006712;28;20025;-61
2021/12/16 11:06:40;;;;;;;34.40;29.20;;;;;;;8.43;100.00;103746.41;5008283;28;20375;-60
2021/12/16 11:09:33;;;;;;;34.00;28.80;;;;;;;8.47;100.00;103740.72;5005606;28;20026;-61
2021/12/16 11:12:26;;;;;;;37.13;30.67;;;;;;;8.54;100.00;103747.34;5001248;28;20259;-60
2021/12/16 11:15:15;;;;;;;33.60;29.52;;;;;;;8.63;100.00;103753.31;5010041;28;20041;-62
2021/12/16 11:17:46;;;;;;;33.33;28.92;;;;;;;8.76;100.00;103744.06;5011636;28;20211;-62
2021/12/16 11:20:15;;;;;;;34.28;29.25;;;;;;;8.91;100.00;103743.56;5005139;28;20084;-62
2021/12/16 11:22:41;;;;;;;34.58;29.55;;;;;;;9.01;100.00;103746.19;5009366;28;20042;-62
2021/12/16 11:25:12;;;;;;;37.20;29.42;;;;;;;9.10;100.00;103752.09;5009164;28;20037;-61
2021/12/16 11:27:38;;;;;;;34.10;29.52;;;;;;;9.23;100.00;103748.88;5012115;28;20032;-62
2021/12/16 11:30:29;;;;;;;32.92;29.20;;;;;;;9.34;100.00;103752.38;5007313;28;20401;-61
2021/12/16 11:33:04;;;;;;;30.95;27.55;;;;;;;9.37;100.00;103751.75;5009798;28;20382;-62
2021/12/16 11:35:43;;;;;;;31.23;27.92;;;;;;;9.49;100.00;103746.66;5005780;28;20030;-59
2021/12/16 11:38:33;;;;;;;29.80;26.05;;;;;;;9.67;100.00;103746.38;5009340;28;20125;-62
2021/12/16 11:41:10;;;;;;;33.30;28.63;;;;;;;9.85;100.00;103747.91;5011404;28;20104;-61
2021/12/16 11:44:19;;;;;;;31.60;26.40;;;;;;;10.07;100.00;103746.16;5009779;28;20381;-61
2021/12/16 11:46:47;;;;;;;31.85;25.42;;;;;;;10.14;100.00;103737.16;4960454;28;20039;-60
2021/12/16 11:49:23;;;;;;;28.00;24.98;;;;;;;10.17;100.00;103738.31;4960445;28;20074;-60
2021/12/16 11:52:01;;;;;;;27.58;24.10;;;;;;;10.25;100.00;103732.84;4959564;28;20030;-62
2021/12/16 11:54:55;;;;;;;25.70;22.42;;;;;;;10.26;100.00;103730.38;4964312;28;20427;-62
2021/12/16 11:57:43;;;;;;;23.33;20.15;;;;;;;10.22;100.00;103738.69;4962525;28;20515;-61
2021/12/16 12:00:18;;;;;;;24.95;21.58;;;;;;;10.17;100.00;103733.13;4967558;28;20359;-63
2021/12/16 12:02:45;;;;;;;24.42;19.42;;;;;;;10.08;100.00;103722.94;4959890;28;20110;-62
2021/12/16 12:05:28;;;;;;;23.55;19.95;;;;;;;10.01;100.00;103727.50;4967200;28;20097;-60
2021/12/16 12:08:08;;;;;;;25.50;19.85;;;;;;;9.95;100.00;103739.19;4965866;28;20042;-62
2021/12/16 12:10:36;;;;;;;20.80;17.75;;;;;;;9.92;100.00;103731.16;4961838;28;20392;-61
2021/12/16 12:13:06;;;;;;;22.00;18.90;;;;;;;9.92;100.00;103730.25;4962269;28;20027;-61
2021/12/16 12:15:32;;;;;;;26.80;20.42;;;;;;;9.91;100.00;103731.03;4960184;28;20593;-62
2021/12/16 12:17:58;;;;;;;25.23;19.95;;;;;;;9.89;100.00;103728.34;4963607;28;20019;-62
2021/12/16 12:20:30;;;;;;;23.27;18.58;;;;;;;9.91;100.00;103736.22;4970949;28;20378;-62
2021/12/16 12:22:55;;;;;;;20.92;17.70;;;;;;;9.99;100.00;103724.78;5008254;28;20037;-63
2021/12/16 12:25:21;;;;;;;21.02;16.83;;;;;;;10.06;100.00;103719.31;5010113;28;20030;-62
2021/12/16 12:27:47;;;;;;;18.15;16.20;;;;;;;10.18;100.00;103718.50;5010324;28;20133;-62
2021/12/16 12:30:12;;;;;;;20.88;17.42;;;;;;;10.30;100.00;103715.97;5009001;28;20032;-63
2021/12/16 12:32:42;;;;;;;19.63;16.20;;;;;;;10.39;100.00;103715.78;5009734;28;20213;-63
2021/12/16 12:35:12;;;;;;;20.85;16.70;;;;;;;10.45;100.00;103718.88;5008609;28;20022;-63
2021/12/16 12:37:40;;;;;;;21.13;18.45;;;;;;;10.48;100.00;103716.56;5011042;28;20157;-62
2021/12/16 12:40:06;;;;;;;21.00;18.80;;;;;;;10.45;100.00;103711.09;5011049;28;20030;-62
2021/12/16 12:42:31;;;;;;;20.95;18.70;;;;;;;10.45;100.00;103711.09;5009063;28;20612;-63
2021/12/16 12:44:57;;;;;;;21.20;18.83;;;;;;;10.44;100.00;103714.47;5011289;28;20026;-63
2021/12/16 12:47:26;;;;;;;23.58;21.08;;;;;;;10.40;100.00;103717.59;5002787;28;20478;-62
2021/12/16 12:49:53;;;;;;;23.48;21.02;;;;;;;10.36;100.00;103720.75;5009053;28;20032;-61
2021/12/16 12:52:23;;;;;;;25.05;21.75;;;;;;;10.33;100.00;103714.53;5009159;28;20605;-60
2021/12/16 12:55:01;;;;;;;23.27;20.88;;;;;;;10.31;100.00;103723.88;5009506;28;20025;-62
2021/12/16 12:57:29;;;;;;;22.45;20.27;;;;;;;10.28;100.00;103718.44;5006028;28;20179;-62
2021/12/16 12:59:57;;;;;;;23.83;20.08;;;;;;;10.24;100.00;103715.47;5007916;28;20049;-62
2021/12/16 13:02:28;;;;;;;27.33;21.65;;;;;;;10.20;100.00;103714.31;5007452;28;20037;-62
2021/12/16 13:04:56;;;;;;;;;;;;;;;10.16;100.00;103707.09;5009219;28;20070;-62
2021/12/16 13:07:40;;;;;;;24.20;19.33;;;;;;;10.13;100.00;103712.94;5009690;28;19917;-62
2021/12/16 13:10:38;;;;;;;25.02;20.70;;;;;;;10.09;100.00;103714.38;5006376;28;20116;-62
2021/12/16 13:16:13;;;;;;;23.05;19.05;;;;;;;10.05;100.00;103714.94;5006537;28;20064;-61
2021/12/16 13:30:07;;;;;;;22.20;15.55;;;;;;;9.90;100.00;103713.69;4994531;28;20045;-62
2021/12/16 13:32:43;;;;;;;18.17;16.15;;;;;;;9.86;100.00;103720.28;5003618;28;20040;-63
2021/12/16 13:35:37;;;;;;;17.23;15.38;;;;;;;9.81;100.00;103727.69;4996631;28;20036;-63
2021/12/16 13:38:07;;;;;;;22.92;16.85;;;;;;;9.77;100.00;103710.09;5004907;28;20152;-62
2021/12/16 13:40:37;;;;;;;18.73;16.33;;;;;;;9.74;100.00;103717.63;5001708;28;20089;-62
2021/12/16 13:43:14;;;;;;;23.42;17.27;;;;;;;9.71;100.00;103722.56;4996243;28;20041;-63
2021/12/16 13:46:30;;;;;;;20.52;16.95;;;;;;;9.68;100.00;103724.88;5000074;28;20026;-63
2021/12/16 14:03:26;;;;;;;18.55;16.25;;;;;;;9.50;100.00;103725.16;5004454;28;20048;-62
2021/12/16 14:06:19;;;;;;;22.50;16.52;;;;;;;9.47;100.00;103727.50;5008499;28;20120;-61
2021/12/16 14:08:51;;;;;;;22.50;17.13;;;;;;;9.44;100.00;103717.81;5007822;28;20044;-61
2021/12/16 14:14:45;;;;;;;22.60;17.33;;;;;;;9.40;100.00;103727.78;5002527;28;20069;-62
2021/12/16 14:17:44;;;;;;;21.50;16.10;;;;;;;9.36;100.00;103732.72;5007649;28;20048;-62
2021/12/16 14:23:12;;;;;;;22.60;17.63;;;;;;;9.30;100.00;103737.34;5008126;28;20064;-61
2021/12/16 14:45:20;;;;;;;18.33;14.18;;;;;;;9.09;100.00;103749.41;4979833;28;20038;-62
2021/12/16 14:50:29;;;;;;;16.70;14.80;;;;;;;8.99;100.00;103758.94;4983023;28;20038;-61
2021/12/16 14:52:57;;;;;;;19.73;15.43;;;;;;;8.93;100.00;103755.84;4974328;28;20030;-62
2021/12/16 14:55:24;;;;;;;18.33;15.68;;;;;;;8.90;100.00;103753.00;4983586;28;20131;-62
2021/12/16 14:57:54;;;;;;;16.73;14.93;;;;;;;8.88;100.00;103754.56;4976625;28;20526;-61
2021/12/16 15:00:34;;;;;;;24.15;16.58;;;;;;;8.83;100.00;103759.31;4980362;28;20079;-61